Chenzhou, China
Current Conditions -  °F | °C
As of 10:00 AM on Monday 22 Dec 2014 (Local Time) from ZGHA Reporting Station
Clear Clear  
Wind Chill: 32°   Ceiling: Unl
Heat Index: 37°   Visibility: 5mi
Dew Point: 25°   Wind: 7mph
Humidity: 60%   Direction: 50°NE
Pressure: 30.48"   Gusts: NA
Location:  25.8°N, 113.03°E
Report Text: ZGHA 220200Z 05003MPS 360V090 8000 NSC 03/M04 Q1032 NOSIG
Loading
Personal Weather Stations






























Interactive Weather Map New forecast layout! Learn more

10-Day Weather Forecast

Advertisements
Track Severe Weather on mobile